Udhagamandalam, India

12:01 AM IST on December 05, 2016 (GMT +0530)
Coimbatore | | Change Station

Elev 1309 ft 11.03 °N, 77.04 °E | Updated 31 minutes ago

Partly Cloudy
Partly Cloudy
73 °F
Feels Like 73 °F
N
0
Wind Variable Wind from North

Today
High -- | Low -- °F
--% Chance of Precip.
Yesterday
High -- | Low -- °F
Precip. -- in
Pressure 30.04 in
Visibility 3.1 miles
Clouds Few 1500 ft
Dew Point 70 °F
Humidity 88%
Rainfall 0.00 in
Snow Depth Not available.
6:29 AM 5:58 PM
Waxing Crescent, 24% visible
METAR VOCB 041800Z 00000KT 5000 BR FEW015 23/21 Q1017 NOSIG
Pressure 30.04 in
Visibility 3.1 miles
Clouds Few 1500 ft
Dew Point 70 °F
Humidity 88%
Rainfall 0.00 in
Snow Depth Not available.
6:29 AM 5:58 PM
Waxing Crescent, 24% visible
METAR VOCB 041800Z 00000KT 5000 BR FEW015 23/21 Q1017 NOSIG

10-Day Weather Forecast

No radar image for this location.
×

Almanac

Astronomy

Dec. 05, 2016 Rise Set
Actual Time
Civil Twilight
Nautical Twilight
Astronomical Twilight
Moon
Length of Visible Light
Length of Day
Tomorrow will be .
, % of the Moon is Illuminated

Today's Extremes

Country Highs Country Lows

Community

WunderPhotos

Upload Photos

1,955,640 photos uploaded!

WunderBlog® & News

Nearby

Air Quality

  Air Quality AQ Index Pollutant
Not available.

Snow Depth

Station Depth Elevation

Earthquake Activity

City Distance Mag. Time & Date
Minimum magnitude displayed is 2.5.

Coastal Water Temperatures

Place Temperature

Stations

Nearby Weather Stations

Station Location Temp. Windchill Dew Point Humidity Wind Precip. Elev Updated Type